Time;durP1;ratioP1;P1;durP2;ratioP2;P2;SDS_P1;SDS_P2;PMS_P1;PMS_P2;Temp;Humidity;BMP_temperature;BMP_pressure;BME280_temperature;BME280_humidity;BME280_pressure;Samples;Min_cycle;Max_cycle;Signal;HPM_P1;HPM_P2
2021/09/02 00:00:11;;;;;;;16.48;9.27;;;15.70;99.90;;;;;;5061017;28;20024;-88
2021/09/02 00:02:37;;;;;;;14.85;10.32;;;15.60;99.90;;;;;;5055252;28;20127;-88
2021/09/02 00:05:03;;;;;;;14.63;8.98;;;15.70;99.90;;;;;;5058480;28;20051;-88
2021/09/02 00:07:29;;;;;;;19.77;9.27;;;15.60;99.90;;;;;;5061280;28;20396;-90
2021/09/02 00:09:54;;;;;;;17.67;11.10;;;15.60;99.90;;;;;;5059606;28;20048;-88
2021/09/02 00:12:20;;;;;;;15.57;9.73;;;15.60;99.90;;;;;;5063322;28;20052;-88
2021/09/02 00:14:45;;;;;;;11.88;8.63;;;15.60;99.90;;;;;;5097466;28;20051;-88
2021/09/02 00:17:11;;;;;;;16.60;9.35;;;15.60;99.90;;;;;;5064799;28;20046;-88
2021/09/02 00:19:37;;;;;;;14.63;8.82;;;15.60;99.90;;;;;;5073945;28;21763;-88
2021/09/02 00:22:03;;;;;;;12.68;9.13;;;15.50;99.90;;;;;;5066507;28;20028;-87
2021/09/02 00:24:28;;;;;;;12.43;8.75;;;15.50;99.90;;;;;;5055133;28;20096;-88
2021/09/02 00:26:54;;;;;;;13.13;8.38;;;15.50;99.90;;;;;;5079166;28;20578;-89
2021/09/02 00:29:19;;;;;;;11.95;9.07;;;15.50;99.90;;;;;;5048204;28;20036;-89
2021/09/02 00:31:45;;;;;;;14.43;9.00;;;15.50;99.90;;;;;;5061007;28;20051;-89
2021/09/02 00:34:10;;;;;;;12.60;8.82;;;15.40;99.90;;;;;;5081979;28;22000;-88
2021/09/02 00:36:36;;;;;;;12.48;8.52;;;15.40;99.90;;;;;;5054731;28;20036;-88
2021/09/02 00:39:01;;;;;;;10.98;7.70;;;15.40;99.90;;;;;;5060830;28;20037;-89
2021/09/02 00:41:27;;;;;;;12.48;8.32;;;15.40;99.90;;;;;;5069533;28;20069;-89
2021/09/02 00:43:52;;;;;;;14.00;9.68;;;15.30;99.90;;;;;;5067096;28;20059;-88
2021/09/02 00:46:18;;;;;;;12.38;9.40;;;15.30;99.90;;;;;;5099644;28;20123;-90
2021/09/02 00:48:51;;;;;;;11.50;8.75;;;15.30;99.90;;;;;;5088662;28;20044;-87
2021/09/02 00:51:18;;;;;;;13.25;10.05;;;15.20;99.90;;;;;;5059873;28;20396;-89
2021/09/02 00:53:45;;;;;;;15.73;9.25;;;15.20;99.90;;;;;;5050180;28;20059;-88
2021/09/02 00:56:11;;;;;;;16.27;10.25;;;15.20;99.90;;;;;;5057703;28;20112;-89
2021/09/02 00:58:36;;;;;;;13.30;10.57;;;15.20;99.90;;;;;;5057358;28;20128;-87
2021/09/02 01:01:02;;;;;;;16.13;10.07;;;15.20;99.90;;;;;;5056945;28;20111;-87
2021/09/02 01:03:28;;;;;;;13.05;9.82;;;15.20;99.90;;;;;;5094959;28;20044;-88
2021/09/02 01:05:54;;;;;;;15.52;10.70;;;15.20;99.90;;;;;;5053643;28;20037;-89
2021/09/02 01:08:20;;;;;;;13.20;9.35;;;15.20;99.90;;;;;;5055236;28;20048;-87
2021/09/02 01:10:49;;;;;;;17.15;11.93;;;15.20;99.90;;;;;;5089928;28;20408;-89
2021/09/02 01:13:16;;;;;;;13.55;10.45;;;15.10;99.90;;;;;;5056952;28;20032;-86
2021/09/02 01:15:41;;;;;;;22.13;11.45;;;15.10;99.90;;;;;;5069625;28;20037;-86
2021/09/02 01:18:07;;;;;;;15.15;10.65;;;15.10;99.90;;;;;;5059976;28;20047;-90
2021/09/02 01:20:33;;;;;;;17.77;11.70;;;15.10;99.90;;;;;;5059367;28;20044;-87
2021/09/02 01:23:01;;;;;;;17.02;11.50;;;15.10;99.90;;;;;;5063547;28;20095;-88
2021/09/02 01:25:29;;;;;;;17.13;10.60;;;15.10;99.90;;;;;;5037968;28;20048;-87
2021/09/02 01:28:00;;;;;;;16.85;10.25;;;15.10;99.90;;;;;;5037069;28;20052;-87
2021/09/02 01:30:26;;;;;;;13.43;9.75;;;15.10;99.90;;;;;;5061490;28;20052;-88
2021/09/02 01:32:53;;;;;;;17.02;10.57;;;15.10;99.90;;;;;;5094501;28;20092;-86
2021/09/02 01:35:20;;;;;;;14.73;10.60;;;15.00;99.90;;;;;;5062843;28;20119;-89
2021/09/02 01:37:57;;;;;;;17.85;11.48;;;15.00;99.90;;;;;;5056840;28;20044;-87
2021/09/02 01:40:26;;;;;;;18.05;11.07;;;15.00;99.90;;;;;;5077593;28;20378;-88
2021/09/02 01:42:52;;;;;;;16.85;10.60;;;15.00;99.90;;;;;;5056830;28;20075;-87
2021/09/02 01:45:18;;;;;;;13.75;10.43;;;15.00;99.90;;;;;;5060455;28;20073;-89
2021/09/02 01:47:44;;;;;;;13.60;10.13;;;15.00;99.90;;;;;;5056130;28;20047;-89
2021/09/02 01:50:12;;;;;;;17.98;11.05;;;15.00;99.90;;;;;;5070853;28;20021;-88
2021/09/02 01:52:39;;;;;;;18.92;11.35;;;15.00;99.90;;;;;;5068304;28;20678;-88
2021/09/02 01:55:06;;;;;;;14.88;9.73;;;15.00;99.90;;;;;;5058212;28;20040;-88
2021/09/02 01:57:32;;;;;;;14.88;9.73;;;14.90;99.90;;;;;;5053154;28;20033;-88
2021/09/02 01:59:58;;;;;;;19.60;11.13;;;14.90;99.90;;;;;;5070615;28;20039;-89
2021/09/02 02:02:23;;;;;;;18.83;10.52;;;14.90;99.90;;;;;;5063890;28;20036;-89
2021/09/02 02:04:49;;;;;;;16.98;10.52;;;14.90;99.90;;;;;;5063183;28;20029;-89
2021/09/02 02:07:15;;;;;;;23.85;10.88;;;14.90;99.90;;;;;;5106896;28;20048;-89
2021/09/02 02:09:41;;;;;;;17.45;11.05;;;14.90;99.90;;;;;;5108790;28;20055;-89
2021/09/02 02:12:07;;;;;;;14.00;11.30;;;14.90;99.90;;;;;;5061043;28;20045;-89
2021/09/02 02:14:33;;;;;;;18.70;11.82;;;14.90;99.90;;;;;;5103455;28;20043;-89
2021/09/02 02:16:59;;;;;;;18.63;11.95;;;14.90;99.90;;;;;;5068111;28;20029;-89
2021/09/02 02:19:24;;;;;;;15.93;9.90;;;14.90;99.90;;;;;;5055878;28;20032;-88
2021/09/02 02:21:50;;;;;;;21.67;11.98;;;14.90;99.90;;;;;;5063029;28;20036;-89
2021/09/02 02:24:15;;;;;;;16.13;11.40;;;14.80;99.90;;;;;;5087265;28;20073;-88
2021/09/02 02:26:41;;;;;;;14.32;10.65;;;14.80;99.90;;;;;;5055632;28;20052;-89
2021/09/02 02:29:06;;;;;;;19.50;12.73;;;14.80;99.90;;;;;;5054519;28;20048;-89
2021/09/02 02:31:32;;;;;;;15.73;11.75;;;14.80;99.90;;;;;;5056406;28;20043;-88
2021/09/02 02:33:57;;;;;;;19.55;11.90;;;14.80;99.90;;;;;;5088694;28;20132;-88
2021/09/02 02:36:23;;;;;;;19.75;12.57;;;14.70;99.90;;;;;;5065456;28;20047;-88
2021/09/02 02:38:49;;;;;;;15.23;10.48;;;14.80;99.90;;;;;;5073853;28;20040;-87
2021/09/02 02:41:14;;;;;;;17.15;12.32;;;14.70;99.90;;;;;;5069243;28;20044;-88
2021/09/02 02:43:40;;;;;;;14.32;10.40;;;14.80;99.90;;;;;;5067141;28;20122;-88
2021/09/02 02:46:05;;;;;;;17.35;12.15;;;14.80;99.90;;;;;;5063165;28;20387;-88
2021/09/02 02:48:31;;;;;;;16.95;12.20;;;14.70;99.90;;;;;;5070998;28;20460;-89
2021/09/02 02:50:56;;;;;;;21.33;12.30;;;14.70;99.90;;;;;;5085210;28;20052;-88
2021/09/02 02:53:22;;;;;;;19.83;11.55;;;14.70;99.90;;;;;;5065743;28;20048;-88
2021/09/02 02:55:47;;;;;;;18.77;12.82;;;14.70;99.90;;;;;;5054959;28;20041;-87
2021/09/02 02:58:13;;;;;;;24.50;13.82;;;14.70;99.90;;;;;;5053348;28;20042;-88
2021/09/02 03:00:38;;;;;;;23.80;14.38;;;14.70;99.90;;;;;;5060790;28;20514;-88
2021/09/02 03:03:04;;;;;;;20.92;13.20;;;14.70;99.90;;;;;;5057379;28;20463;-88
2021/09/02 03:05:29;;;;;;;21.42;14.65;;;14.70;99.90;;;;;;5055510;28;20048;-88
2021/09/02 03:07:55;;;;;;;23.67;12.30;;;14.70;99.90;;;;;;5069703;28;20059;-86
2021/09/02 03:10:21;;;;;;;16.40;12.02;;;14.70;99.90;;;;;;5060159;28;20064;-88
2021/09/02 03:12:46;;;;;;;17.77;12.40;;;14.70;99.90;;;;;;5064167;28;20430;-88
2021/09/02 03:15:12;;;;;;;18.15;11.55;;;14.70;99.90;;;;;;5069500;28;20047;-88
2021/09/02 03:17:38;;;;;;;17.30;11.80;;;14.70;99.90;;;;;;5057310;28;20111;-87
2021/09/02 03:20:05;;;;;;;21.20;12.30;;;14.70;99.90;;;;;;5095262;28;20397;-89
2021/09/02 03:22:31;;;;;;;15.95;11.30;;;14.70;99.90;;;;;;5062544;28;20056;-88
2021/09/02 03:24:57;;;;;;;20.73;12.70;;;14.70;99.90;;;;;;5051558;28;20041;-88
2021/09/02 03:27:23;;;;;;;20.95;12.90;;;14.70;99.90;;;;;;5052763;28;20037;-88
2021/09/02 03:29:48;;;;;;;21.40;12.52;;;14.70;99.90;;;;;;5059400;28;20274;-89
2021/09/02 03:32:14;;;;;;;17.17;12.00;;;14.60;99.90;;;;;;5061209;28;20134;-87
2021/09/02 03:34:40;;;;;;;20.05;12.88;;;14.60;99.90;;;;;;5056500;28;20087;-87
2021/09/02 03:37:05;;;;;;;18.90;11.68;;;14.60;99.90;;;;;;5065469;28;20040;-88
2021/09/02 03:39:32;;;;;;;17.45;12.07;;;14.60;99.90;;;;;;5060811;28;20030;-87
2021/09/02 03:41:57;;;;;;;15.57;11.40;;;14.60;99.90;;;;;;5051479;28;20059;-87
2021/09/02 03:44:23;;;;;;;17.20;12.60;;;14.60;99.90;;;;;;5059196;28;20068;-88
2021/09/02 03:46:48;;;;;;;22.67;12.52;;;14.50;99.90;;;;;;5059762;28;20114;-89
2021/09/02 03:49:14;;;;;;;19.45;12.35;;;14.50;99.90;;;;;;5065167;28;20032;-89
2021/09/02 03:51:39;;;;;;;14.93;11.27;;;14.50;99.90;;;;;;5070669;28;20052;-88
2021/09/02 03:54:05;;;;;;;15.75;10.68;;;14.60;99.90;;;;;;5066374;28;20051;-88
2021/09/02 03:56:31;;;;;;;16.48;11.68;;;14.50;99.90;;;;;;5052646;28;20032;-88
2021/09/02 03:58:56;;;;;;;17.15;11.45;;;14.50;99.90;;;;;;5060235;28;20036;-87
2021/09/02 04:01:22;;;;;;;18.30;11.07;;;14.50;99.90;;;;;;5063241;28;20428;-87
2021/09/02 04:03:48;;;;;;;18.90;12.25;;;14.50;99.90;;;;;;5058979;28;20116;-88
2021/09/02 04:06:13;;;;;;;15.25;11.10;;;14.40;99.90;;;;;;5058354;28;20309;-88
2021/09/02 04:08:39;;;;;;;16.27;12.23;;;14.50;99.90;;;;;;5056299;28;20048;-88
2021/09/02 04:11:04;;;;;;;19.23;12.90;;;14.40;99.90;;;;;;5060177;28;20041;-89
2021/09/02 04:13:30;;;;;;;18.60;12.68;;;14.40;99.90;;;;;;5062144;28;20416;-88
2021/09/02 04:15:55;;;;;;;22.25;11.77;;;14.40;99.90;;;;;;5055965;28;20038;-89
2021/09/02 04:18:21;;;;;;;19.40;11.85;;;14.40;99.90;;;;;;5052815;28;20071;-89
2021/09/02 04:20:46;;;;;;;16.45;11.38;;;14.40;99.90;;;;;;5069423;28;20052;-89
2021/09/02 04:23:12;;;;;;;14.25;10.55;;;14.40;99.90;;;;;;5053361;28;20053;-89
2021/09/02 04:25:37;;;;;;;20.52;12.13;;;14.40;99.90;;;;;;5048615;28;20044;-89
2021/09/02 04:28:04;;;;;;;23.35;14.07;;;14.40;99.90;;;;;;5066715;28;20041;-88
2021/09/02 04:30:30;;;;;;;21.38;13.10;;;14.40;99.90;;;;;;5052917;28;20037;-88
2021/09/02 04:32:56;;;;;;;17.02;12.02;;;14.40;99.90;;;;;;5098173;28;20044;-88
2021/09/02 04:35:21;;;;;;;24.15;14.27;;;14.40;99.90;;;;;;5060783;28;20063;-89
2021/09/02 04:37:48;;;;;;;28.35;13.80;;;14.40;99.90;;;;;;5059287;28;20041;-87
2021/09/02 04:40:15;;;;;;;22.42;14.65;;;14.30;99.90;;;;;;5085376;28;20494;-86
2021/09/02 04:42:41;;;;;;;25.23;14.20;;;14.30;99.90;;;;;;5055930;28;20369;-88
2021/09/02 04:45:13;;;;;;;29.85;14.55;;;14.40;99.90;;;;;;5053281;28;20119;-88
2021/09/02 04:47:39;;;;;;;23.83;13.95;;;14.30;99.90;;;;;;5090207;28;20090;-87
2021/09/02 04:50:06;;;;;;;22.52;13.93;;;14.40;99.90;;;;;;5069720;28;20044;-88
2021/09/02 04:52:31;;;;;;;23.70;13.77;;;14.40;99.90;;;;;;5065965;28;20044;-87
2021/09/02 04:54:57;;;;;;;21.20;13.85;;;14.40;99.90;;;;;;5054980;28;20079;-89
2021/09/02 04:57:22;;;;;;;23.85;14.82;;;14.40;99.90;;;;;;5043110;28;20117;-89
2021/09/02 04:59:48;;;;;;;25.48;14.40;;;14.40;99.90;;;;;;5062842;28;20051;-87
2021/09/02 05:02:15;;;;;;;22.98;13.30;;;14.40;99.90;;;;;;5070993;28;20041;-88
2021/09/02 05:04:41;;;;;;;21.42;14.10;;;14.40;99.90;;;;;;5064214;28;20066;-87
2021/09/02 05:07:06;;;;;;;25.90;15.18;;;14.40;99.90;;;;;;5077230;28;20385;-89
2021/09/02 05:09:32;;;;;;;22.48;14.38;;;14.50;99.90;;;;;;5061190;28;20111;-86
2021/09/02 05:11:57;;;;;;;24.02;15.80;;;14.50;99.90;;;;;;5065924;28;20066;-87
2021/09/02 05:14:23;;;;;;;23.42;14.23;;;14.50;99.90;;;;;;5070172;28;20040;-88
2021/09/02 05:16:48;;;;;;;19.23;13.05;;;14.50;99.90;;;;;;5066573;28;20032;-90
2021/09/02 05:19:14;;;;;;;27.30;14.45;;;14.60;99.90;;;;;;5069503;28;20129;-87
2021/09/02 05:21:39;;;;;;;24.42;16.08;;;14.60;99.90;;;;;;5062829;28;20150;-89
2021/09/02 05:24:05;;;;;;;26.67;14.85;;;14.60;99.90;;;;;;5053370;28;20041;-86
2021/09/02 05:26:31;;;;;;;24.45;15.57;;;14.60;99.90;;;;;;5057482;28;20033;-88
2021/09/02 05:28:57;;;;;;;22.83;14.35;;;14.60;99.90;;;;;;5057852;28;20040;-90
2021/09/02 05:31:22;;;;;;;23.45;14.23;;;14.60;99.90;;;;;;5058412;28;20036;-89
2021/09/02 05:33:48;;;;;;;22.20;13.13;;;14.60;99.90;;;;;;5061184;28;20041;-90
2021/09/02 05:36:14;;;;;;;22.83;15.10;;;14.70;99.90;;;;;;5082918;28;20041;-88
2021/09/02 05:38:40;;;;;;;26.33;14.18;;;14.70;99.90;;;;;;5072755;28;20056;-90
2021/09/02 05:41:06;;;;;;;21.58;13.85;;;14.70;99.90;;;;;;5079776;28;20128;-88
2021/09/02 05:43:32;;;;;;;19.77;14.07;;;14.80;99.90;;;;;;5105342;28;20040;-87
2021/09/02 05:45:58;;;;;;;20.70;12.93;;;14.80;99.90;;;;;;5080749;28;20062;-88
2021/09/02 05:48:23;;;;;;;22.35;15.38;;;14.90;99.90;;;;;;5086177;28;20041;-88
2021/09/02 05:50:52;;;;;;;22.08;14.30;;;14.90;99.90;;;;;;5090452;28;20100;-88
2021/09/02 05:53:17;;;;;;;26.73;15.23;;;15.00;99.90;;;;;;5072278;28;20045;-89
2021/09/02 05:55:43;;;;;;;22.58;14.02;;;15.00;99.90;;;;;;5075356;28;20132;-89
2021/09/02 05:58:08;;;;;;;18.42;13.02;;;15.00;99.90;;;;;;5069908;28;20036;-91
2021/09/02 06:00:35;;;;;;;18.60;12.98;;;15.10;99.90;;;;;;5074816;28;20029;-88
2021/09/02 06:03:01;;;;;;;17.73;12.73;;;15.20;99.90;;;;;;5063090;28;20045;-88
2021/09/02 06:05:26;;;;;;;19.48;13.88;;;15.20;99.90;;;;;;5060652;28;20098;-86
2021/09/02 06:07:52;;;;;;;21.27;14.00;;;15.30;99.90;;;;;;5057014;28;20040;-89
2021/09/02 06:10:18;;;;;;;19.40;14.23;;;15.30;99.90;;;;;;5056788;28;20075;-88
2021/09/02 06:12:43;;;;;;;23.25;13.90;;;15.40;99.90;;;;;;5058047;28;20072;-87
2021/09/02 06:15:10;;;;;;;19.05;13.13;;;15.40;99.90;;;;;;5061116;28;20084;-87
2021/09/02 06:17:35;;;;;;;20.67;14.35;;;15.50;99.90;;;;;;5079616;28;20059;-90
2021/09/02 06:20:01;;;;;;;22.45;11.70;;;15.50;99.90;;;;;;5055952;28;20030;-88
2021/09/02 06:22:27;;;;;;;17.23;12.80;;;15.50;99.90;;;;;;5054731;28;20040;-90
2021/09/02 06:24:53;;;;;;;20.42;12.90;;;15.60;99.90;;;;;;5064105;28;20040;-88
2021/09/02 06:27:19;;;;;;;16.75;12.05;;;15.60;99.90;;;;;;5064896;28;20037;-89
2021/09/02 06:29:44;;;;;;;19.92;11.85;;;15.70;99.90;;;;;;5064092;28;20345;-89
2021/09/02 06:32:10;;;;;;;19.70;11.95;;;15.70;99.90;;;;;;5049778;28;20037;-88
2021/09/02 06:34:35;;;;;;;17.45;11.80;;;15.80;99.90;;;;;;5061434;28;20033;-88
2021/09/02 06:37:01;;;;;;;19.38;11.13;;;15.90;99.90;;;;;;5061785;28;20439;-89
2021/09/02 06:39:26;;;;;;;16.73;11.07;;;16.00;99.90;;;;;;5078136;28;20037;-89
2021/09/02 06:41:52;;;;;;;20.27;11.68;;;16.00;99.90;;;;;;5069585;28;20067;-90
2021/09/02 06:44:17;;;;;;;18.00;10.80;;;16.10;99.90;;;;;;5068164;28;20082;-87
2021/09/02 06:46:45;;;;;;;19.52;10.77;;;16.10;99.90;;;;;;5070413;28;20041;-90
2021/09/02 06:49:10;;;;;;;16.08;9.98;;;16.20;99.90;;;;;;5065331;28;20060;-89
2021/09/02 06:51:37;;;;;;;17.45;10.48;;;16.30;99.90;;;;;;5065557;28;20047;-89
2021/09/02 06:54:03;;;;;;;16.40;9.63;;;16.30;99.90;;;;;;5061308;28;20055;-89
2021/09/02 06:56:29;;;;;;;19.90;9.57;;;16.40;99.90;;;;;;5061313;28;20300;-90
2021/09/02 06:58:54;;;;;;;14.60;9.20;;;16.50;99.90;;;;;;5062437;28;20420;-88
2021/09/02 07:01:20;;;;;;;17.70;9.50;;;16.50;99.90;;;;;;5060487;28;20036;-88
2021/09/02 07:03:45;;;;;;;15.45;9.48;;;16.60;99.90;;;;;;5061006;28;20045;-90
2021/09/02 07:06:11;;;;;;;10.00;8.25;;;16.60;99.90;;;;;;5060462;28;20047;-89
2021/09/02 07:08:37;;;;;;;13.73;8.82;;;16.70;99.90;;;;;;5060087;28;20055;-89
2021/09/02 07:11:03;;;;;;;17.05;10.30;;;16.70;99.90;;;;;;5063500;28;20040;-88
2021/09/02 07:13:29;;;;;;;11.30;8.80;;;16.70;99.90;;;;;;5068350;28;20320;-90
2021/09/02 07:15:54;;;;;;;20.30;9.27;;;16.90;99.90;;;;;;5062601;28;20044;-90
2021/09/02 07:18:21;;;;;;;18.08;9.48;;;17.00;99.90;;;;;;5062160;28;20040;-89
2021/09/02 07:20:46;;;;;;;18.63;9.35;;;17.00;99.90;;;;;;5060279;28;20312;-88
2021/09/02 07:23:12;;;;;;;14.88;9.23;;;17.10;99.90;;;;;;5059741;28;20037;-89
2021/09/02 07:25:37;;;;;;;14.88;8.70;;;17.20;99.90;;;;;;5060645;28;20032;-82
2021/09/02 07:28:03;;;;;;;11.80;6.40;;;17.20;99.90;;;;;;5057561;28;20051;-82
2021/09/02 07:30:28;;;;;;;13.35;8.05;;;17.30;99.90;;;;;;5057135;28;20130;-82
2021/09/02 07:32:54;;;;;;;13.95;7.45;;;17.40;99.90;;;;;;5057013;28;20041;-83
2021/09/02 07:35:20;;;;;;;11.02;8.10;;;17.50;99.90;;;;;;5057137;28;20067;-83
2021/09/02 07:37:45;;;;;;;15.98;8.35;;;17.60;99.80;;;;;;5061065;28;20415;-82
2021/09/02 07:40:11;;;;;;;11.07;7.65;;;17.70;99.50;;;;;;5099708;28;20033;-83
2021/09/02 07:42:37;;;;;;;16.30;8.70;;;17.80;99.40;;;;;;5063753;28;20056;-90
2021/09/02 08:10:33;;;;;;;;;;;;;;;;;;;;;
2021/09/02 08:14:24;;;;;;;;;;;;;;;;;;;;;
2021/09/02 08:20:30;;;;;;;17.60;9.02;;;18.80;98.40;;;;;;4939697;29;20098;-92
2021/09/02 08:30:43;;;;;;;;;;;;;;;;;;;;;
2021/09/02 08:33:39;;;;;;;11.73;7.53;;;19.30;97.10;;;;;;5040627;28;20033;-91
2021/09/02 08:36:43;;;;;;;;;;;;;;;;;;;;;
2021/09/02 08:43:12;;;;;;;;;;;;;;;;;;;;;
2021/09/02 08:45:57;;;;;;;;;;;;;;;;;;;;;
2021/09/02 08:49:03;;;;;;;10.18;7.10;;;19.90;96.90;;;;;;5069328;28;20057;-91
2021/09/02 08:51:51;;;;;;;10.55;6.18;;;20.10;96.40;;;;;;5062799;28;20033;-93
2021/09/02 09:02:07;;;;;;;9.27;5.05;;;20.30;95.20;;;;;;5028394;28;20130;-91
2021/09/02 09:09:10;;;;;;;;;;;;;;;;;;;;;
2021/09/02 09:18:34;;;;;;;;;;;;;;;;;;;;;
2021/09/02 09:25:12;;;;;;;4.60;3.17;;;21.00;91.80;;;;;;4945541;29;20047;-90
2021/09/02 09:35:33;;;;;;;6.88;2.75;;;21.30;90.50;;;;;;4983577;28;20054;-93
2021/09/02 10:30:22;;;;;;;6.90;4.68;;;24.00;88.50;;;;;;5067067;23;20779;-84
2021/09/02 10:32:48;;;;;;;5.50;3.38;;;24.10;89.50;;;;;;4998574;28;20038;-85
2021/09/02 10:35:20;;;;;;;7.32;4.45;;;24.30;86.90;;;;;;4982484;28;20157;-85
2021/09/02 10:37:45;;;;;;;9.38;4.45;;;24.40;86.50;;;;;;4998408;28;20046;-85
2021/09/02 10:40:17;;;;;;;9.52;4.78;;;24.40;85.80;;;;;;4998764;28;20046;-85
2021/09/02 10:42:54;;;;;;;7.05;4.85;;;24.30;86.60;;;;;;4998953;28;20128;-83
2021/09/02 10:45:26;;;;;;;8.10;3.85;;;24.30;85.80;;;;;;4997606;28;20049;-85
2021/09/02 10:47:56;;;;;;;6.20;3.90;;;24.20;87.20;;;;;;4999022;28;20042;-85
2021/09/02 10:50:23;;;;;;;7.32;3.70;;;24.30;85.10;;;;;;4981981;28;20699;-84
2021/09/02 10:52:51;;;;;;;7.72;4.25;;;24.30;85.90;;;;;;5013158;28;20575;-85
2021/09/02 10:55:30;;;;;;;6.57;4.10;;;24.40;85.60;;;;;;4999334;28;20145;-86
2021/09/02 10:57:58;;;;;;;6.63;4.05;;;24.60;85.00;;;;;;5001327;28;20084;-93
2021/09/02 11:00:35;;;;;;;5.72;4.00;;;24.70;85.00;;;;;;4999358;28;20035;-93
2021/09/02 11:03:22;;;;;;;7.00;4.25;;;24.70;83.40;;;;;;5007519;28;20042;-91
2021/09/02 11:05:53;;;;;;;6.68;4.28;;;24.60;83.50;;;;;;4989191;28;20499;-90
2021/09/02 11:08:32;;;;;;;6.38;4.10;;;24.50;85.20;;;;;;5003683;28;20046;-89
2021/09/02 11:11:11;;;;;;;7.80;4.15;;;24.30;85.50;;;;;;5004642;28;20056;-91
2021/09/02 11:13:38;;;;;;;8.35;4.80;;;24.10;85.20;;;;;;4987494;28;20046;-89
2021/09/02 11:16:16;;;;;;;6.15;3.80;;;24.00;86.30;;;;;;4987511;28;20046;-91
2021/09/02 11:18:43;;;;;;;5.95;3.40;;;23.80;86.80;;;;;;4988499;28;20125;-92
2021/09/02 11:21:16;;;;;;;5.80;4.00;;;23.60;87.50;;;;;;5005357;28;20134;-92
2021/09/02 11:23:59;;;;;;;;;;;;;;;;;;;;;
2021/09/02 11:36:48;;;;;;;5.72;3.80;;;24.10;87.00;;;;;;5006519;28;20029;-94
2021/09/02 11:43:39;;;;;;;6.25;3.30;;;24.40;83.00;;;;;;4985047;28;20139;-93
2021/09/02 11:46:30;;;;;;;5.53;4.05;;;24.60;83.60;;;;;;4981638;28;20057;-93
2021/09/02 11:53:05;;;;;;;;;;;;;;;;;;;;;
2021/09/02 12:39:25;;;;;;;6.15;3.40;;;25.20;79.50;;;;;;4887868;29;20059;-94
2021/09/02 12:42:19;;;;;;;5.07;3.28;;;25.20;79.60;;;;;;4904972;29;20035;-93
2021/09/02 12:45:13;;;;;;;4.85;2.95;;;25.20;80.20;;;;;;4982610;28;20053;-94
2021/09/02 13:22:07;;;;;;;4.28;2.75;;;26.00;76.50;;;;;;4979724;28;20029;-94
2021/09/02 13:34:59;;;;;;;4.65;2.22;;;26.10;76.20;;;;;;4960440;29;20054;-93
2021/09/02 13:44:30;;;;;;;;;;;25.90;76.80;;;;;;5001817;28;20112;-95
2021/09/02 14:04:37;;;;;;;4.53;2.88;;;25.50;77.90;;;;;;4941000;29;20094;-93
2021/09/02 14:07:06;;;;;;;8.98;3.65;;;25.50;78.70;;;;;;4921803;29;20570;-95
2021/09/02 14:13:27;;;;;;;4.53;2.42;;;25.40;76.90;;;;;;4946281;29;20050;-94
2021/09/02 14:32:26;;;;;;;5.53;3.78;;;25.10;79.60;;;;;;4981573;28;20287;-93
2021/09/02 14:58:22;;;;;;;5.75;3.40;;;25.60;79.40;;;;;;4904873;29;20098;-87
2021/09/02 15:00:51;;;;;;;6.70;3.15;;;25.60;78.20;;;;;;4942653;28;20141;-89
2021/09/02 15:03:16;;;;;;;4.95;2.65;;;25.60;78.00;;;;;;4972314;28;20034;-89
2021/09/02 15:05:43;;;;;;;4.75;2.72;;;25.50;77.80;;;;;;4983323;28;20189;-87
2021/09/02 15:08:08;;;;;;;5.47;3.40;;;25.50;78.10;;;;;;4977426;28;20306;-88
2021/09/02 15:10:34;;;;;;;6.85;3.70;;;25.50;77.60;;;;;;4984232;28;20056;-92
2021/09/02 15:13:00;;;;;;;5.43;2.97;;;25.40;77.70;;;;;;4983685;28;20046;-85
2021/09/02 15:15:27;;;;;;;6.88;3.63;;;25.30;78.80;;;;;;5000406;28;20037;-93
2021/09/02 15:17:53;;;;;;;3.90;3.42;;;25.20;78.10;;;;;;4986097;28;20444;-89
2021/09/02 15:20:18;;;;;;;8.20;4.05;;;25.00;79.20;;;;;;5002799;28;20042;-90
2021/09/02 15:22:43;;;;;;;4.65;3.45;;;24.90;78.70;;;;;;5002620;28;20077;-90
2021/09/02 15:25:09;;;;;;;4.32;3.13;;;24.70;80.30;;;;;;4991427;28;20042;-90
2021/09/02 15:27:37;;;;;;;5.32;3.63;;;24.60;80.30;;;;;;4987053;28;20088;-90
2021/09/02 15:30:03;;;;;;;6.03;3.55;;;24.40;80.80;;;;;;4985736;28;20034;-91
2021/09/02 15:32:29;;;;;;;4.55;3.63;;;24.20;81.80;;;;;;5002025;28;20046;-87
2021/09/02 15:34:55;;;;;;;4.63;3.58;;;24.10;82.40;;;;;;5006140;28;20297;-89
2021/09/02 15:37:21;;;;;;;4.28;3.42;;;24.00;82.20;;;;;;5017686;28;20050;-86
2021/09/02 15:39:46;;;;;;;5.80;3.75;;;23.80;82.20;;;;;;4983616;28;20038;-87
2021/09/02 15:42:12;;;;;;;6.65;4.35;;;23.60;82.40;;;;;;4982750;28;20031;-94
2021/09/02 15:44:39;;;;;;;6.22;4.45;;;23.60;83.40;;;;;;4981008;28;20104;-83
2021/09/02 15:47:05;;;;;;;5.60;3.05;;;23.50;83.30;;;;;;4999272;28;20065;-87
2021/09/02 15:49:30;;;;;;;6.70;3.63;;;23.50;83.00;;;;;;4982677;28;20353;-89
2021/09/02 15:51:56;;;;;;;8.48;3.83;;;23.40;83.40;;;;;;4982593;28;20318;-87
2021/09/02 15:54:22;;;;;;;4.85;3.30;;;23.30;83.80;;;;;;5001541;28;20042;-89
2021/09/02 15:56:47;;;;;;;8.60;4.30;;;23.40;84.10;;;;;;4998864;28;20088;-88
2021/09/02 15:59:13;;;;;;;6.95;3.90;;;23.40;83.90;;;;;;4982242;28;20052;-86
2021/09/02 16:01:38;;;;;;;5.50;3.65;;;23.40;83.40;;;;;;4982132;28;20046;-87
2021/09/02 16:04:05;;;;;;;6.50;3.95;;;23.50;83.50;;;;;;5014781;28;20199;-87
2021/09/02 16:06:31;;;;;;;6.78;3.58;;;23.50;83.60;;;;;;4982863;28;20309;-88
2021/09/02 16:08:56;;;;;;;5.47;3.45;;;23.50;82.90;;;;;;5014628;28;20049;-86
2021/09/02 16:11:22;;;;;;;6.22;3.78;;;23.50;83.30;;;;;;5001303;28;20038;-89
2021/09/02 16:13:51;;;;;;;5.15;4.22;;;23.50;83.40;;;;;;4999574;28;20077;-87
2021/09/02 16:16:16;;;;;;;7.78;3.70;;;23.50;83.00;;;;;;4998816;28;20030;-87
2021/09/02 16:18:42;;;;;;;5.63;4.22;;;23.50;82.80;;;;;;4997773;28;20049;-87
2021/09/02 16:21:07;;;;;;;6.78;4.40;;;23.50;83.60;;;;;;4981085;28;20079;-87
2021/09/02 16:23:33;;;;;;;5.57;3.67;;;23.50;83.50;;;;;;4997682;28;20038;-87
2021/09/02 16:25:58;;;;;;;6.03;4.25;;;23.60;83.00;;;;;;5013971;28;20089;-87
2021/09/02 16:28:24;;;;;;;4.60;3.47;;;23.50;83.20;;;;;;4981261;28;20130;-86
2021/09/02 16:30:50;;;;;;;5.60;3.95;;;23.50;83.90;;;;;;5012642;28;20180;-85
2021/09/02 16:33:16;;;;;;;4.28;3.15;;;23.50;83.00;;;;;;4982641;28;20038;-86
2021/09/02 16:35:43;;;;;;;5.03;4.30;;;23.50;82.50;;;;;;4997305;28;20049;-87
2021/09/02 16:38:08;;;;;;;9.73;4.25;;;23.40;82.60;;;;;;5000719;28;20030;-87
2021/09/02 16:40:35;;;;;;;7.90;3.85;;;23.40;82.50;;;;;;5000830;28;20693;-86
2021/09/02 16:43:01;;;;;;;6.13;2.90;;;23.40;82.80;;;;;;4980852;28;20042;-86
2021/09/02 16:45:27;;;;;;;5.05;3.47;;;23.30;82.90;;;;;;5011714;28;20050;-87
2021/09/02 16:47:53;;;;;;;5.65;3.83;;;23.30;83.10;;;;;;5012794;28;20116;-87
2021/09/02 16:50:19;;;;;;;5.65;3.85;;;23.30;83.30;;;;;;4997846;28;20069;-87
2021/09/02 16:52:44;;;;;;;4.13;3.50;;;23.30;82.90;;;;;;4996574;28;20674;-87
2021/09/02 16:55:11;;;;;;;4.80;4.00;;;23.20;83.20;;;;;;5012612;28;20370;-86
2021/09/02 16:57:39;;;;;;;4.93;3.17;;;23.20;83.10;;;;;;4979753;28;20053;-86
2021/09/02 17:00:08;;;;;;;7.05;3.75;;;23.20;83.50;;;;;;5013342;28;20539;-87
2021/09/02 17:02:34;;;;;;;5.95;3.80;;;23.10;83.70;;;;;;4998167;28;20465;-87
2021/09/02 17:04:59;;;;;;;4.78;3.42;;;23.00;83.80;;;;;;4976655;28;20035;-86
2021/09/02 17:07:25;;;;;;;6.18;4.00;;;23.00;84.20;;;;;;5013618;28;20038;-86
2021/09/02 17:09:50;;;;;;;4.82;3.30;;;22.90;83.90;;;;;;4981287;28;20038;-85
2021/09/02 17:12:16;;;;;;;5.45;3.08;;;22.90;84.20;;;;;;4980551;28;20129;-85
2021/09/02 17:14:41;;;;;;;6.05;3.72;;;22.80;84.40;;;;;;4979509;28;20108;-87
2021/09/02 17:17:07;;;;;;;5.22;3.47;;;22.70;84.60;;;;;;5005597;28;20479;-86
2021/09/02 17:19:36;;;;;;;5.45;3.65;;;22.60;84.90;;;;;;5018437;28;20038;-86
2021/09/02 17:22:03;;;;;;;3.60;2.88;;;22.50;85.60;;;;;;5011026;28;20034;-85
2021/09/02 17:24:28;;;;;;;5.95;3.85;;;22.50;86.00;;;;;;4998133;28;20034;-86
2021/09/02 17:26:54;;;;;;;8.55;3.17;;;22.40;86.30;;;;;;5013096;28;20042;-85
2021/09/02 17:29:19;;;;;;;4.40;3.28;;;22.30;86.60;;;;;;4996920;28;20046;-86
2021/09/02 17:31:45;;;;;;;5.05;3.15;;;22.30;87.10;;;;;;4997578;28;20393;-87
2021/09/02 17:34:11;;;;;;;5.05;3.33;;;22.20;87.30;;;;;;4979029;28;20053;-86
2021/09/02 17:36:36;;;;;;;4.07;3.47;;;22.10;87.70;;;;;;4994651;28;20038;-86
2021/09/02 17:39:03;;;;;;;6.65;3.95;;;22.00;87.90;;;;;;4995965;28;20406;-86
2021/09/02 17:41:29;;;;;;;5.78;3.40;;;21.90;88.80;;;;;;4996216;28;20038;-85
2021/09/02 17:43:54;;;;;;;7.47;4.18;;;21.90;88.90;;;;;;4996006;28;20488;-85
2021/09/02 17:46:20;;;;;;;6.25;3.90;;;21.70;89.50;;;;;;4994920;28;20049;-85
2021/09/02 17:48:45;;;;;;;4.65;4.07;;;21.60;89.90;;;;;;4996592;28;20037;-85